MMCS/CJS METAR and TAF weather

Enter ICAO airport designator
Station Type Date Time Source
MMCS METAR 2020/01/24 20:41 UTC NOAA

MMCS 242041Z 00000KT 8SM SKC 16/M04 A3006 RMK SLP133 57033 970 CI HZY


Station Type Date Time Source
MMCS Decoded METAR 2020/01/24 20:41 UTC NOAA

Ciudad Juarez International , Mexico (MMCS) 31-38N 106-26W
Jan 24, 2020 - 03:41 PM EST / 2020.01.24 2041 UTC
Wind: Calm:0
Visibility: 8 mile(s):0
Sky conditions: clear
Temperature: 60 F (16 C)
Dew Point: 24 F (-4 C)
Relative Humidity: 25%
Pressure (altimeter): 30.06 in. Hg (1017 hPa)
Pressure tendency: 0.10 inches (3.3 hPa) lower than three hours ago
ob: MMCS 242041Z 00000KT 8SM SKC 16/M04 A3006 RMK SLP133 57033 970 CI HZY
cycle: 20

Station Type Date Time Source
MMCS TAF 2020/01/24 18:32 UTC NOAA

TAF MMCS 241725Z 2418/2518 33005KT P6SM SCT260
FM251200 28012KT P6SM SKC

Example: see airport list